createdAt,value
2024-01-30T00:01:05.310Z,100.00
2024-01-30T00:03:32.099Z,103.75
2024-01-30T00:05:59.902Z,108.50
2024-01-30T00:08:27.652Z,103.00
2024-01-30T00:10:54.508Z,73.75
2024-01-30T00:13:21.510Z,103.75
2024-01-30T00:15:48.386Z,101.25
2024-01-30T00:18:15.343Z,118.50
2024-01-30T00:20:42.204Z,78.00
2024-01-30T00:23:08.881Z,91.75
2024-01-30T00:25:35.888Z,92.00
2024-01-30T00:28:03.267Z,78.50
2024-01-30T00:30:29.999Z,102.00
2024-01-30T00:32:58.050Z,94.25
2024-01-30T00:35:24.744Z,81.75
2024-01-30T00:37:51.792Z,95.25
2024-01-30T00:40:19.151Z,89.25
2024-01-30T00:42:46.809Z,94.25
2024-01-30T00:45:15.667Z,103.75
2024-01-30T00:47:43.026Z,105.00
2024-01-30T00:50:10.431Z,102.50
2024-01-30T00:52:37.246Z,107.25
2024-01-30T00:55:04.743Z,104.00
2024-01-30T00:57:31.508Z,110.25
2024-01-30T00:59:58.680Z,95.75
2024-01-30T01:02:25.390Z,102.75
2024-01-30T01:04:52.106Z,97.00
2024-01-30T01:07:18.901Z,103.75
2024-01-30T01:09:45.763Z,89.00
2024-01-30T01:12:12.557Z,101.00
2024-01-30T01:14:39.292Z,48.75
2024-01-30T01:17:06.293Z,87.75
2024-01-30T01:19:33.192Z,73.50
2024-01-30T01:22:00.018Z,84.75
2024-01-30T01:24:26.952Z,84.00
2024-01-30T01:26:53.922Z,80.50
2024-01-30T01:29:22.069Z,88.25
2024-01-30T01:31:50.091Z,64.50
2024-01-30T01:34:17.278Z,83.00
2024-01-30T01:36:44.162Z,84.50
2024-01-30T01:39:11.994Z,90.00
2024-01-30T01:41:38.716Z,87.50
2024-01-30T01:44:06.531Z,78.25
2024-01-30T01:46:34.922Z,91.75
2024-01-30T01:49:04.050Z,75.75
2024-01-30T01:51:33.110Z,72.50
2024-01-30T01:54:03.150Z,87.00
2024-01-30T01:56:31.039Z,83.50
2024-01-30T01:59:01.540Z,77.50
2024-01-30T02:01:29.306Z,66.75
2024-01-30T02:03:57.081Z,97.50
2024-01-30T02:06:24.186Z,92.75
2024-01-30T02:08:51.254Z,87.50
2024-01-30T02:11:18.269Z,82.00
2024-01-30T02:13:45.087Z,102.50
2024-01-30T02:16:12.123Z,95.00
2024-01-30T02:18:43.385Z,91.25
2024-01-30T02:21:10.281Z,89.75
2024-01-30T02:23:37.798Z,80.25
2024-01-30T02:26:04.738Z,77.50
2024-01-30T02:28:31.522Z,85.00
2024-01-30T02:30:58.211Z,78.50
2024-01-30T02:33:24.972Z,77.00
2024-01-30T02:35:51.625Z,73.25
2024-01-30T02:38:18.514Z,69.25
2024-01-30T02:40:45.137Z,68.00
2024-01-30T02:43:11.956Z,70.50
2024-01-30T02:45:38.764Z,63.25
2024-01-30T02:48:07.645Z,63.00
2024-01-30T02:50:34.410Z,64.25
2024-01-30T02:53:01.257Z,63.25
2024-01-30T02:55:28.204Z,53.50
2024-01-30T02:57:55.220Z,49.50
2024-01-30T03:00:22.124Z,58.50
2024-01-30T03:02:49.017Z,54.00
2024-01-30T03:05:15.669Z,54.75
2024-01-30T03:07:42.613Z,49.00
2024-01-30T03:10:09.629Z,47.50
2024-01-30T03:12:36.583Z,43.75
2024-01-30T03:15:03.458Z,47.00
2024-01-30T03:17:30.163Z,42.75
2024-01-30T03:19:57.014Z,48.50
2024-01-30T03:22:23.898Z,46.25
2024-01-30T03:24:50.767Z,49.00
2024-01-30T03:27:17.609Z,48.00
2024-01-30T03:29:44.389Z,45.00
2024-01-30T03:32:11.196Z,46.75
2024-01-30T03:34:38.140Z,53.75
2024-01-30T03:37:05.022Z,45.50
2024-01-30T03:39:31.929Z,38.00
2024-01-30T03:41:58.716Z,44.00
2024-01-30T03:44:25.575Z,40.50
2024-01-30T03:46:52.381Z,48.25
2024-01-30T03:49:19.329Z,39.50
2024-01-30T03:51:46.288Z,41.00
2024-01-30T03:54:13.070Z,39.75
2024-01-30T03:56:39.888Z,40.50
2024-01-30T03:59:06.683Z,40.00
2024-01-30T04:01:33.667Z,41.00
2024-01-30T04:04:00.606Z,43.25
2024-01-30T04:06:27.813Z,42.50
2024-01-30T04:08:54.534Z,42.25
2024-01-30T04:11:21.695Z,19.25
2024-01-30T04:13:49.727Z,38.00
2024-01-30T04:16:25.911Z,37.00
2024-01-30T04:18:53.661Z,41.25
2024-01-30T04:21:22.601Z,26.25
2024-01-30T04:23:50.328Z,46.50
2024-01-30T04:26:17.083Z,40.00
2024-01-30T04:28:45.753Z,39.25
2024-01-30T04:31:13.072Z,43.00
2024-01-30T04:33:40.003Z,47.00
2024-01-30T04:36:11.707Z,40.75
2024-01-30T04:38:39.874Z,34.50
2024-01-30T04:41:06.906Z,47.50
2024-01-30T04:43:34.790Z,25.75
2024-01-30T04:46:01.855Z,38.50
2024-01-30T04:48:28.841Z,42.25
2024-01-30T04:50:57.370Z,43.25
2024-01-30T04:53:24.166Z,45.00
2024-01-30T04:55:50.920Z,41.50
2024-01-30T04:58:17.753Z,45.25
2024-01-30T05:00:44.762Z,45.00
2024-01-30T05:03:15.475Z,35.25
2024-01-30T05:05:42.404Z,42.75
2024-01-30T05:08:12.381Z,46.75
2024-01-30T05:10:39.559Z,45.00
2024-01-30T05:13:06.938Z,40.75
2024-01-30T05:15:33.827Z,47.50
2024-01-30T05:18:01.538Z,45.25
2024-01-30T05:20:31.275Z,44.50
2024-01-30T05:22:58.029Z,46.00
2024-01-30T05:25:25.726Z,22.50
2024-01-30T05:27:52.603Z,43.75
2024-01-30T05:30:19.365Z,45.25
2024-01-30T05:32:46.406Z,47.00
2024-01-30T05:35:13.453Z,50.50
2024-01-30T05:37:40.196Z,49.25
2024-01-30T05:40:07.996Z,39.25
2024-01-30T05:42:34.688Z,45.50
2024-01-30T05:45:01.533Z,41.00
2024-01-30T05:47:28.224Z,44.75
2024-01-30T05:49:55.053Z,6.25
2024-01-30T05:52:24.833Z,44.00
2024-01-30T05:54:51.574Z,48.00
2024-01-30T05:57:18.633Z,45.75
2024-01-30T05:59:46.136Z,47.00
2024-01-30T06:02:13.105Z,61.75
2024-01-30T06:04:40.123Z,69.75
2024-01-30T06:07:07.966Z,59.50
2024-01-30T06:09:34.783Z,40.50
2024-01-30T06:12:01.465Z,48.75
2024-01-30T06:14:28.618Z,44.00
2024-01-30T06:16:55.317Z,45.00
2024-01-30T06:19:22.120Z,36.00
2024-01-30T06:21:49.098Z,39.25
2024-01-30T06:24:15.911Z,42.75
2024-01-30T06:26:42.624Z,48.00
2024-01-30T06:29:09.617Z,45.50
2024-01-30T06:31:42.988Z,45.25
2024-01-30T06:34:10.843Z,42.75
2024-01-30T06:36:37.729Z,34.75
2024-01-30T06:39:05.206Z,39.50
2024-01-30T06:41:31.951Z,40.50
2024-01-30T06:43:58.656Z,31.50
2024-01-30T06:46:25.525Z,38.00
2024-01-30T06:48:52.531Z,44.50
2024-01-30T06:51:19.318Z,27.50
2024-01-30T06:53:46.170Z,54.00
2024-01-30T06:56:12.949Z,48.75
2024-01-30T06:58:40.123Z,26.00
2024-01-30T07:01:07.842Z,37.50
2024-01-30T07:03:34.662Z,37.25
2024-01-30T07:06:01.343Z,40.00
2024-01-30T07:08:28.151Z,48.25
2024-01-30T07:10:59.191Z,48.25
2024-01-30T07:13:29.673Z,43.75
2024-01-30T07:15:56.595Z,37.25
2024-01-30T07:18:23.351Z,45.00
2024-01-30T07:20:50.716Z,51.00
2024-01-30T07:23:18.944Z,46.00
2024-01-30T07:25:48.321Z,42.50
2024-01-30T07:28:18.149Z,42.25
2024-01-30T07:30:44.948Z,43.25
2024-01-30T07:33:11.766Z,37.00
2024-01-30T07:35:39.235Z,36.25
2024-01-30T07:38:06.348Z,37.00
2024-01-30T07:40:34.502Z,37.25
2024-01-30T07:43:02.396Z,41.50
2024-01-30T07:45:33.780Z,39.25
2024-01-30T07:48:04.066Z,37.25
2024-01-30T07:50:31.630Z,44.50
2024-01-30T07:52:58.382Z,37.50
2024-01-30T07:55:33.265Z,29.00
2024-01-30T07:58:00.614Z,34.75
2024-01-30T08:00:27.815Z,46.50
2024-01-30T08:02:56.712Z,47.50
2024-01-30T08:05:25.090Z,46.75
2024-01-30T08:07:52.792Z,46.00
2024-01-30T08:10:20.414Z,48.25
2024-01-30T08:12:47.633Z,45.75
2024-01-30T08:15:14.817Z,45.25
2024-01-30T08:17:41.590Z,48.75
2024-01-30T08:20:09.866Z,41.00
2024-01-30T08:22:36.999Z,42.00
2024-01-30T08:25:04.186Z,45.00
2024-01-30T08:27:30.937Z,42.50
2024-01-30T08:29:57.656Z,31.25
2024-01-30T08:32:25.129Z,42.25
2024-01-30T08:34:52.160Z,35.00
2024-01-30T08:37:19.133Z,35.75
2024-01-30T08:39:45.910Z,44.00
2024-01-30T08:42:12.869Z,44.50
2024-01-30T08:44:39.967Z,39.00
2024-01-30T08:47:07.424Z,39.00
2024-01-30T08:49:34.414Z,41.50
2024-01-30T08:52:01.324Z,42.50
2024-01-30T08:54:28.270Z,43.25
2024-01-30T08:56:56.724Z,35.00
2024-01-30T08:59:23.548Z,39.50
2024-01-30T09:01:59.791Z,44.50
2024-01-30T09:04:30.875Z,40.50
2024-01-30T09:06:57.681Z,43.50
2024-01-30T09:09:24.603Z,50.75
2024-01-30T09:11:51.286Z,50.00
2024-01-30T09:14:18.174Z,45.75
2024-01-30T09:16:44.853Z,43.50
2024-01-30T09:19:11.698Z,47.50
2024-01-30T09:21:38.817Z,45.50
2024-01-30T09:24:05.954Z,41.25
2024-01-30T09:26:32.704Z,50.75
2024-01-30T09:28:59.369Z,45.25
2024-01-30T09:31:26.324Z,49.00
2024-01-30T09:33:55.373Z,43.00
2024-01-30T09:36:23.173Z,46.50
2024-01-30T09:38:49.885Z,41.00
2024-01-30T09:41:17.071Z,47.75
2024-01-30T09:43:50.443Z,49.25
2024-01-30T09:46:19.307Z,48.00
2024-01-30T09:48:49.367Z,49.50
2024-01-30T09:51:17.823Z,48.00
2024-01-30T09:53:47.408Z,48.50
2024-01-30T09:56:15.343Z,51.75
2024-01-30T09:58:43.271Z,50.75
2024-01-30T10:01:10.107Z,52.50
2024-01-30T10:03:37.290Z,47.00
2024-01-30T10:06:04.471Z,51.50
2024-01-30T10:08:31.299Z,48.75
2024-01-30T10:10:58.341Z,53.75
2024-01-30T10:13:26.750Z,55.75
2024-01-30T10:15:54.856Z,51.00
2024-01-30T10:18:21.796Z,48.25
2024-01-30T10:20:48.791Z,52.00
2024-01-30T10:23:15.807Z,55.00
2024-01-30T10:25:43.078Z,52.25
2024-01-30T10:28:10.793Z,53.00
2024-01-30T10:30:37.612Z,51.25
2024-01-30T10:33:05.126Z,55.00
2024-01-30T10:35:32.073Z,61.50
2024-01-30T10:37:59.982Z,59.00
2024-01-30T10:40:30.230Z,49.50
2024-01-30T10:42:57.791Z,52.50
2024-01-30T10:45:29.310Z,54.50
2024-01-30T10:47:59.935Z,59.75
2024-01-30T10:50:28.145Z,55.00
2024-01-30T10:52:56.398Z,57.75
2024-01-30T10:55:24.283Z,53.50
2024-01-30T10:57:51.911Z,56.50
2024-01-30T11:00:23.774Z,49.50
2024-01-30T11:02:51.075Z,51.25
2024-01-30T11:05:32.720Z,50.50
2024-01-30T11:08:00.650Z,50.50
2024-01-30T11:10:27.495Z,49.00
2024-01-30T11:12:54.508Z,49.75
2024-01-30T11:15:23.007Z,52.75
2024-01-30T11:17:49.922Z,52.75
2024-01-30T11:20:33.761Z,49.50
2024-01-30T11:23:01.175Z,53.00
2024-01-30T11:25:28.438Z,53.50
2024-01-30T11:27:57.247Z,54.50
2024-01-30T11:30:29.516Z,55.75
2024-01-30T11:33:12.597Z,56.75
2024-01-30T11:35:44.144Z,56.25
2024-01-30T11:38:15.457Z,56.25
2024-01-30T11:40:42.780Z,55.00
2024-01-30T11:43:10.843Z,56.25
2024-01-30T11:45:38.435Z,53.25
2024-01-30T11:48:06.175Z,53.25
2024-01-30T11:50:36.630Z,55.50
2024-01-30T11:53:04.234Z,52.00
2024-01-30T11:55:34.609Z,49.25
2024-01-30T11:58:03.125Z,52.50
2024-01-30T12:00:32.283Z,54.00
2024-01-30T12:02:59.553Z,50.25
2024-01-30T12:05:27.167Z,51.75
2024-01-30T12:07:54.498Z,49.75
2024-01-30T12:10:22.368Z,39.00
2024-01-30T12:12:51.494Z,51.25
2024-01-30T12:15:22.922Z,48.50
2024-01-30T12:17:49.810Z,44.50
2024-01-30T12:20:20.025Z,45.50
2024-01-30T12:22:51.585Z,42.25
2024-01-30T12:25:20.479Z,46.75
2024-01-30T12:27:52.743Z,49.25
2024-01-30T12:30:21.776Z,45.25
2024-01-30T12:32:52.156Z,39.75
2024-01-30T12:35:22.068Z,46.25
2024-01-30T12:37:50.763Z,45.75
2024-01-30T12:40:18.698Z,45.50
2024-01-30T12:42:50.628Z,46.00
2024-01-30T12:45:23.058Z,49.00
2024-01-30T12:47:50.454Z,47.50
2024-01-30T12:50:20.755Z,45.75
2024-01-30T12:52:49.706Z,42.00
2024-01-30T12:55:17.479Z,42.75
2024-01-30T12:57:44.373Z,46.00
2024-01-30T13:00:11.555Z,47.00
2024-01-30T13:02:38.652Z,51.50
2024-01-30T13:05:06.240Z,43.00
2024-01-30T13:07:33.102Z,47.00
2024-01-30T13:10:04.713Z,47.00
2024-01-30T13:12:33.735Z,46.67
2024-01-30T13:15:05.588Z,45.33
2024-01-30T13:17:33.258Z,38.67
2024-01-30T13:20:07.283Z,46.00
2024-01-30T13:22:40.023Z,45.00
2024-01-30T13:25:08.773Z,43.00
2024-01-30T13:27:36.758Z,40.33
2024-01-30T13:30:03.950Z,38.33
2024-01-30T13:32:30.836Z,38.67
2024-01-30T13:34:57.698Z,36.00
2024-01-30T13:37:24.837Z,34.00
2024-01-30T13:39:51.699Z,40.67
2024-01-30T13:42:18.635Z,34.00
2024-01-30T13:44:45.588Z,38.67
2024-01-30T13:47:12.533Z,37.33
2024-01-30T13:49:39.382Z,33.00
2024-01-30T13:52:06.593Z,35.33
2024-01-30T13:54:33.296Z,33.00
2024-01-30T13:57:00.435Z,30.67
2024-01-30T13:59:27.199Z,30.67
2024-01-30T14:01:54.022Z,25.00
2024-01-30T14:04:20.937Z,31.33
2024-01-30T14:06:53.775Z,32.67
2024-01-30T14:09:27.604Z,36.33
2024-01-30T14:11:54.522Z,47.25
2024-01-30T14:14:21.286Z,44.25
2024-01-30T14:16:48.032Z,47.00
2024-01-30T14:19:15.032Z,40.00
2024-01-30T14:21:41.962Z,25.25
2024-01-30T14:24:09.846Z,41.75
2024-01-30T14:26:36.653Z,53.50
2024-01-30T14:29:03.606Z,28.25
2024-01-30T14:31:30.445Z,49.00
2024-01-30T14:33:57.312Z,41.25
2024-01-30T14:36:29.008Z,40.25
2024-01-30T14:38:56.722Z,45.00
2024-01-30T14:41:23.759Z,52.50
2024-01-30T14:43:50.798Z,77.25
2024-01-30T14:46:17.769Z,74.00
2024-01-30T14:48:45.168Z,64.50
2024-01-30T14:51:12.016Z,46.00
2024-01-30T14:53:38.915Z,50.50
2024-01-30T14:56:06.302Z,46.25
2024-01-30T14:58:33.441Z,49.25
2024-01-30T15:01:00.448Z,47.25
2024-01-30T15:03:29.984Z,51.50
2024-01-30T15:05:57.002Z,51.50
2024-01-30T15:08:27.024Z,46.00
2024-01-30T15:10:55.028Z,44.00
2024-01-30T15:13:22.169Z,46.50
2024-01-30T15:15:49.117Z,48.25
2024-01-30T15:18:17.114Z,44.25
2024-01-30T15:20:44.741Z,43.25
2024-01-30T15:23:11.668Z,43.75
2024-01-30T15:25:38.637Z,50.25
2024-01-30T15:28:06.902Z,49.25
2024-01-30T15:30:33.984Z,48.50
2024-01-30T15:33:01.055Z,48.50
2024-01-30T15:35:28.292Z,46.50
2024-01-30T15:37:55.104Z,46.75
2024-01-30T15:40:21.964Z,41.75
2024-01-30T15:42:49.175Z,46.00
2024-01-30T15:45:16.249Z,53.00
2024-01-30T15:47:44.212Z,60.25
2024-01-30T15:50:13.478Z,66.00
2024-01-30T15:52:40.544Z,66.75
2024-01-30T15:55:09.240Z,73.25
2024-01-30T15:57:36.183Z,77.75
2024-01-30T16:00:03.158Z,76.50
2024-01-30T16:02:30.825Z,75.00
2024-01-30T16:05:01.456Z,72.50
2024-01-30T16:07:28.620Z,73.75
2024-01-30T16:09:55.746Z,73.25
2024-01-30T16:12:22.666Z,75.25
2024-01-30T16:14:49.356Z,69.00
2024-01-30T16:17:16.123Z,66.75
2024-01-30T16:19:45.417Z,76.50
2024-01-30T16:22:12.263Z,72.75
2024-01-30T16:24:39.421Z,72.50
2024-01-30T16:27:06.265Z,74.75
2024-01-30T16:29:34.616Z,74.75
2024-01-30T16:32:03.456Z,74.00
2024-01-30T16:34:30.347Z,74.75
2024-01-30T16:36:57.532Z,78.50
2024-01-30T16:39:24.631Z,75.50
2024-01-30T16:41:51.614Z,75.00
2024-01-30T16:44:18.594Z,85.50
2024-01-30T16:46:45.470Z,70.50
2024-01-30T16:49:12.426Z,75.00
2024-01-30T16:51:39.302Z,72.00
2024-01-30T16:54:06.265Z,75.50
2024-01-30T16:56:33.306Z,73.75
2024-01-30T16:59:00.602Z,72.75
2024-01-30T17:01:27.398Z,75.00
2024-01-30T17:03:54.185Z,77.25
2024-01-30T17:06:20.943Z,82.00
2024-01-30T17:08:47.766Z,72.75
2024-01-30T17:11:14.781Z,77.00
2024-01-30T17:13:41.713Z,74.50
2024-01-30T17:16:08.492Z,88.00
2024-01-30T17:18:35.316Z,84.00
2024-01-30T17:21:01.979Z,86.50
2024-01-30T17:23:28.675Z,78.25
2024-01-30T17:25:56.211Z,81.00
2024-01-30T17:28:23.096Z,82.50
2024-01-30T17:30:50.023Z,82.25
2024-01-30T17:33:17.188Z,78.50
2024-01-30T17:35:44.182Z,75.75
2024-01-30T17:38:11.130Z,69.00
2024-01-30T17:40:37.962Z,72.25
2024-01-30T17:43:05.264Z,74.00
2024-01-30T17:45:32.741Z,66.50
2024-01-30T17:47:59.899Z,77.00
2024-01-30T17:50:27.083Z,101.25
2024-01-30T17:52:55.473Z,100.00
2024-01-30T17:55:22.744Z,114.25
2024-01-30T17:57:49.761Z,101.25
2024-01-30T18:00:19.601Z,112.25
2024-01-30T18:02:47.217Z,96.75
2024-01-30T18:05:14.685Z,86.25
2024-01-30T18:07:42.109Z,84.25
2024-01-30T18:10:09.851Z,87.25
2024-01-30T18:12:37.241Z,80.00
2024-01-30T18:15:05.769Z,79.75
2024-01-30T18:17:32.976Z,81.50
2024-01-30T18:20:00.723Z,76.00
2024-01-30T18:22:28.148Z,73.00
2024-01-30T18:24:55.005Z,64.00
2024-01-30T18:27:22.895Z,57.25
2024-01-30T18:29:52.845Z,67.50
2024-01-30T18:32:20.346Z,62.75
2024-01-30T18:34:47.585Z,68.00
2024-01-30T18:37:14.800Z,65.50
2024-01-30T18:39:44.274Z,66.25
2024-01-30T18:42:11.172Z,62.50
2024-01-30T18:44:37.971Z,65.75
2024-01-30T18:47:05.569Z,65.75
2024-01-30T18:49:32.469Z,56.25
2024-01-30T18:52:04.562Z,58.50
2024-01-30T18:54:31.276Z,60.25
2024-01-30T18:56:58.291Z,61.25
2024-01-30T18:59:25.041Z,63.75
2024-01-30T19:01:52.094Z,60.75
2024-01-30T19:04:19.392Z,63.25
2024-01-30T19:06:47.057Z,70.00
2024-01-30T19:09:13.865Z,74.00
2024-01-30T19:11:41.059Z,87.75
2024-01-30T19:14:08.029Z,90.00
2024-01-30T19:16:35.276Z,75.50
2024-01-30T19:19:06.649Z,76.50
2024-01-30T19:21:34.259Z,74.00
2024-01-30T19:24:02.192Z,68.50
2024-01-30T19:26:28.932Z,64.00
2024-01-30T19:28:55.723Z,66.25
2024-01-30T19:31:24.986Z,65.75
2024-01-30T19:33:52.104Z,66.50
2024-01-30T19:36:18.965Z,62.50
2024-01-30T19:38:48.245Z,65.00
2024-01-30T19:41:15.783Z,61.25
2024-01-30T19:43:42.562Z,51.00
2024-01-30T19:46:10.902Z,60.50
2024-01-30T19:48:37.769Z,57.50
2024-01-30T19:51:04.988Z,58.00
2024-01-30T19:53:33.731Z,53.50
2024-01-30T19:56:01.157Z,53.25
2024-01-30T19:58:28.577Z,59.25
2024-01-30T20:00:55.509Z,55.00
2024-01-30T20:03:22.378Z,57.25
2024-01-30T20:05:49.638Z,63.00
2024-01-30T20:08:17.140Z,67.50
2024-01-30T20:10:44.981Z,68.00
2024-01-30T20:13:12.119Z,67.75
2024-01-30T20:15:39.042Z,69.00
2024-01-30T20:18:06.562Z,74.50
2024-01-30T20:20:33.369Z,68.00
2024-01-30T20:23:01.017Z,72.00
2024-01-30T20:25:28.035Z,69.50
2024-01-30T20:27:56.263Z,70.75
2024-01-30T20:30:24.020Z,71.75
2024-01-30T20:32:53.473Z,74.50
2024-01-30T20:35:21.320Z,70.50
2024-01-30T20:37:50.548Z,72.00
2024-01-30T20:40:17.983Z,73.50
2024-01-30T20:42:45.526Z,74.50
2024-01-30T20:45:12.298Z,83.25
2024-01-30T20:47:39.514Z,78.75
2024-01-30T20:50:06.896Z,74.25
2024-01-30T20:52:37.007Z,78.00
2024-01-30T20:55:04.128Z,80.25
2024-01-30T20:57:30.906Z,78.00
2024-01-30T20:59:57.637Z,74.50
2024-01-30T21:02:24.430Z,87.25
2024-01-30T21:04:51.762Z,83.25
2024-01-30T21:07:20.868Z,88.50
2024-01-30T21:09:51.637Z,86.00
2024-01-30T21:12:18.489Z,75.75
2024-01-30T21:14:45.386Z,82.50
2024-01-30T21:17:12.574Z,78.50
2024-01-30T21:19:39.962Z,81.75
2024-01-30T21:22:06.861Z,78.00
2024-01-30T21:24:33.632Z,80.75
2024-01-30T21:27:00.338Z,81.25
2024-01-30T21:29:28.000Z,75.50
2024-01-30T21:31:55.194Z,83.25
2024-01-30T21:34:24.698Z,90.25
2024-01-30T21:36:52.305Z,82.50
2024-01-30T21:39:19.268Z,77.75
2024-01-30T21:41:46.623Z,87.50
2024-01-30T21:44:13.627Z,73.00
2024-01-30T21:46:40.671Z,75.00
2024-01-30T21:49:07.645Z,77.25
2024-01-30T21:51:34.590Z,82.00
2024-01-30T21:54:01.540Z,77.50
2024-01-30T21:56:28.265Z,77.50
2024-01-30T21:58:55.008Z,82.50
2024-01-30T22:01:23.455Z,90.00
2024-01-30T22:03:51.998Z,97.75
2024-01-30T22:06:21.207Z,94.75
2024-01-30T22:08:48.473Z,83.25
2024-01-30T22:11:15.587Z,74.25
2024-01-30T22:13:42.545Z,79.00
2024-01-30T22:16:09.397Z,80.25
2024-01-30T22:18:36.381Z,78.25
2024-01-30T22:21:08.980Z,65.00
2024-01-30T22:23:36.453Z,78.50
2024-01-30T22:26:03.561Z,77.75
2024-01-30T22:28:30.352Z,79.50
2024-01-30T22:30:57.410Z,54.00
2024-01-30T22:33:24.909Z,86.25
2024-01-30T22:35:51.755Z,81.00
2024-01-30T22:38:19.663Z,83.75
2024-01-30T22:40:46.616Z,81.75
2024-01-30T22:43:14.034Z,87.25
2024-01-30T22:45:41.483Z,82.75
2024-01-30T22:48:08.717Z,77.50
2024-01-30T22:50:35.570Z,74.50
2024-01-30T22:53:02.541Z,78.50
2024-01-30T22:55:29.284Z,75.75
2024-01-30T22:57:56.134Z,75.00
2024-01-30T23:00:29.821Z,76.50
2024-01-30T23:02:58.024Z,92.50
2024-01-30T23:05:25.567Z,80.00
2024-01-30T23:07:52.820Z,67.25
2024-01-30T23:10:21.016Z,86.25
2024-01-30T23:12:48.044Z,78.00
2024-01-30T23:15:14.816Z,80.50
2024-01-30T23:17:42.376Z,81.00
2024-01-30T23:20:09.587Z,75.00
2024-01-30T23:22:37.836Z,83.75
2024-01-30T23:25:05.791Z,84.50
2024-01-30T23:27:34.042Z,78.75
2024-01-30T23:30:00.919Z,76.00
2024-01-30T23:32:34.841Z,80.00
2024-01-30T23:35:07.457Z,72.50
2024-01-30T23:37:35.816Z,75.75
2024-01-30T23:40:02.727Z,76.25
2024-01-30T23:42:29.527Z,78.75
2024-01-30T23:44:56.345Z,75.00
2024-01-30T23:47:23.140Z,77.00
2024-01-30T23:49:50.156Z,79.50
2024-01-30T23:52:16.999Z,72.00
2024-01-30T23:54:43.768Z,75.00
2024-01-30T23:57:10.469Z,75.00
2024-01-30T23:59:37.992Z,78.00
